createdAt,value
2023-02-11T00:14:08.921Z,1028.3
2023-02-11T00:29:43.259Z,1028.2
2023-02-11T00:45:17.586Z,1027.5
2023-02-11T01:00:52.041Z,1027.3
2023-02-11T01:16:26.769Z,1027.5
2023-02-11T01:32:01.285Z,1027.3
2023-02-11T01:47:35.726Z,1027.1
2023-02-11T02:03:10.053Z,1027.1
2023-02-11T02:18:44.670Z,1026.5
2023-02-11T02:34:19.006Z,1026.6
2023-02-11T02:49:53.319Z,1026.4
2023-02-11T03:05:27.641Z,1026.3
2023-02-11T03:21:02.413Z,1025.9
2023-02-11T03:36:36.775Z,1025.6
2023-02-11T03:52:11.098Z,1025.9
2023-02-11T04:07:45.426Z,1025.6
2023-02-11T04:23:19.770Z,1025.3
2023-02-11T04:38:54.107Z,1025.7
2023-02-11T04:54:28.458Z,1026
2023-02-11T05:10:02.809Z,1026.1
2023-02-11T05:25:37.160Z,1025.9
2023-02-11T05:41:11.243Z,1025.8
2023-02-11T05:56:45.655Z,1025.8
2023-02-11T06:12:20.131Z,1025.9
2023-02-11T06:27:54.474Z,1025.7
2023-02-11T06:43:29.221Z,1025.8
2023-02-11T06:59:03.577Z,1025.8
2023-02-11T07:14:37.925Z,1025.8
2023-02-11T07:30:12.326Z,1025.8
2023-02-11T07:45:46.680Z,1025.8
2023-02-11T08:01:21.319Z,1026.1
2023-02-11T08:16:55.902Z,1026
2023-02-11T08:32:30.270Z,1025.9
2023-02-11T08:48:04.650Z,1025.8
2023-02-11T09:03:39.033Z,1025.8
2023-02-11T09:19:13.496Z,1025.9
2023-02-11T09:34:47.884Z,1026
2023-02-11T09:50:22.339Z,1026
2023-02-11T10:05:57.800Z,1026.2
2023-02-11T10:21:32.187Z,1026.1
2023-02-11T10:37:06.603Z,1025.9
2023-02-11T10:52:41.030Z,1025.7
2023-02-11T11:08:15.496Z,1025.6
2023-02-11T11:23:50.280Z,1025.4
2023-02-11T11:39:24.703Z,1025.7
2023-02-11T11:54:59.103Z,1025.5
2023-02-11T12:10:33.579Z,1025.4
2023-02-11T12:26:08.050Z,1025.6
2023-02-11T12:41:42.462Z,1025.3
2023-02-11T12:57:16.884Z,1025.3
2023-02-11T13:12:51.360Z,1025.4
2023-02-11T13:28:25.870Z,1025.3
2023-02-11T13:44:00.052Z,1025.5
2023-02-11T13:59:34.491Z,1025.6
2023-02-11T14:15:08.941Z,1025.5
2023-02-11T14:30:43.495Z,1025.6
2023-02-11T14:46:18.797Z,1025.7
2023-02-11T15:01:53.336Z,1025.8
2023-02-11T15:17:28.058Z,1026
2023-02-11T15:33:02.541Z,1026.2
2023-02-11T15:48:36.952Z,1026.1
2023-02-11T16:04:11.367Z,1026.2
2023-02-11T16:19:46.207Z,1026.2
2023-02-11T16:35:20.606Z,1026.4
2023-02-11T16:50:55.532Z,1026.6
2023-02-11T17:06:30.098Z,1026.8
2023-02-11T17:22:07.163Z,1026.9
2023-02-11T17:37:41.556Z,1027.1
2023-02-11T17:53:15.964Z,1027.1
2023-02-11T18:08:50.358Z,1027.2
2023-02-11T18:24:24.747Z,1027.4
2023-02-11T18:39:59.140Z,1027.6
2023-02-11T18:55:33.534Z,1027.6
2023-02-11T19:11:07.927Z,1027.6
2023-02-11T19:26:42.301Z,1027.8
2023-02-11T19:42:16.671Z,1027.8
2023-02-11T19:57:51.060Z,1027.9
2023-02-11T20:13:25.434Z,1028
2023-02-11T20:28:59.894Z,1028.2
2023-02-11T20:44:34.386Z,1028.3
2023-02-11T21:00:08.983Z,1028.4
2023-02-11T21:15:43.460Z,1028.5
2023-02-11T21:31:18.656Z,1028.7
2023-02-11T21:46:53.808Z,1028.9
2023-02-11T22:02:28.202Z,1028.9
2023-02-11T22:18:02.558Z,1029
2023-02-11T22:33:36.930Z,1029.1
2023-02-11T22:49:11.341Z,1029.4
2023-02-11T23:04:46.093Z,1029.5
2023-02-11T23:20:21.270Z,1029.5
2023-02-11T23:35:56.014Z,1029.6
2023-02-11T23:51:30.567Z,1029.7
